createdAt,value
2023-11-26T00:00:32.529Z,-0.34
2023-11-26T00:03:00.376Z,-0.34
2023-11-26T00:05:28.425Z,-0.34
2023-11-26T00:07:55.657Z,-0.35
2023-11-26T00:10:22.839Z,-0.35
2023-11-26T00:12:49.999Z,-0.37
2023-11-26T00:15:17.242Z,-0.37
2023-11-26T00:17:44.551Z,-0.39
2023-11-26T00:20:11.921Z,-0.39
2023-11-26T00:22:39.628Z,-0.41
2023-11-26T00:25:08.008Z,-0.41
2023-11-26T00:27:35.552Z,-0.42
2023-11-26T00:30:04.405Z,-0.44
2023-11-26T00:32:33.123Z,-0.45
2023-11-26T00:35:01.164Z,-0.44
2023-11-26T00:37:28.380Z,-0.41
2023-11-26T00:39:55.829Z,-0.41
2023-11-26T00:42:22.947Z,-0.37
2023-11-26T00:44:50.023Z,-0.35
2023-11-26T00:47:17.345Z,-0.35
2023-11-26T00:49:44.505Z,-0.36
2023-11-26T00:52:12.612Z,-0.37
2023-11-26T00:54:39.735Z,-0.37
2023-11-26T00:57:07.020Z,-0.36
2023-11-26T00:59:34.270Z,-0.34
2023-11-26T01:02:01.882Z,-0.33
2023-11-26T01:04:29.154Z,-0.32
2023-11-26T01:06:56.619Z,-0.33
2023-11-26T01:09:23.769Z,-0.35
2023-11-26T01:11:51.388Z,-0.36
2023-11-26T01:14:18.533Z,-0.37
2023-11-26T01:16:46.964Z,-0.40
2023-11-26T01:19:14.173Z,-0.41
2023-11-26T01:21:41.780Z,-0.44
2023-11-26T01:24:08.976Z,-0.44
2023-11-26T01:26:36.535Z,-0.46
2023-11-26T01:29:03.773Z,-0.50
2023-11-26T01:31:30.872Z,-0.54
2023-11-26T01:33:58.098Z,-0.54
2023-11-26T01:36:25.427Z,-0.52
2023-11-26T01:38:52.654Z,-0.52
2023-11-26T01:41:19.942Z,-0.54
2023-11-26T01:43:47.221Z,-0.57
2023-11-26T01:46:15.167Z,-0.57
2023-11-26T01:48:42.662Z,-0.58
2023-11-26T01:51:12.165Z,-0.60
2023-11-26T01:53:43.231Z,-0.59
2023-11-26T01:56:10.502Z,-0.59
2023-11-26T01:58:37.777Z,-0.59
2023-11-26T02:01:05.379Z,-0.59
2023-11-26T02:03:33.090Z,-0.63
2023-11-26T02:06:00.884Z,-0.64
2023-11-26T02:08:28.350Z,-0.66
2023-11-26T02:10:56.762Z,-0.65
2023-11-26T02:13:24.262Z,-0.66
2023-11-26T02:15:53.266Z,-0.68
2023-11-26T02:18:20.832Z,-0.69
2023-11-26T02:20:49.880Z,-0.72
2023-11-26T02:23:17.005Z,-0.69
2023-11-26T02:25:44.559Z,-0.71
2023-11-26T02:28:11.725Z,-0.72
2023-11-26T02:30:39.024Z,-0.72
2023-11-26T02:33:08.242Z,-0.72
2023-11-26T02:35:35.676Z,-0.71
2023-11-26T02:38:04.638Z,-0.71
2023-11-26T02:40:32.110Z,-0.68
2023-11-26T02:43:00.756Z,-0.67
2023-11-26T02:45:28.534Z,-0.72
2023-11-26T02:47:55.882Z,-0.77
2023-11-26T02:50:24.616Z,-0.77
2023-11-26T02:52:52.089Z,-0.79
2023-11-26T02:55:19.461Z,-0.76
2023-11-26T02:57:46.574Z,-0.78
2023-11-26T03:00:17.395Z,-0.77
2023-11-26T03:02:46.315Z,-0.79
2023-11-26T03:05:23.096Z,-0.77
2023-11-26T03:07:59.507Z,-0.80
2023-11-26T03:10:45.295Z,-0.80
2023-11-26T03:13:22.162Z,-0.80
2023-11-26T03:15:52.680Z,-0.81
2023-11-26T03:18:20.172Z,-0.81
2023-11-26T03:20:47.517Z,-0.79
2023-11-26T03:23:15.810Z,-0.77
2023-11-26T03:25:43.263Z,-0.76
2023-11-26T03:28:11.957Z,-0.79
2023-11-26T03:30:39.463Z,-0.75
2023-11-26T03:33:08.868Z,-0.71
2023-11-26T03:35:37.080Z,-0.73
2023-11-26T03:38:04.545Z,-0.75
2023-11-26T03:40:32.163Z,-0.79
2023-11-26T03:43:00.068Z,-0.80
2023-11-26T03:45:27.876Z,-0.83
2023-11-26T03:47:55.253Z,-0.80
2023-11-26T03:50:23.905Z,-0.81
2023-11-26T03:52:51.523Z,-0.82
2023-11-26T03:55:19.226Z,-0.82
2023-11-26T03:57:47.995Z,-0.84
2023-11-26T04:00:16.074Z,-0.82
2023-11-26T04:02:43.958Z,-0.82
2023-11-26T04:05:11.804Z,-0.81
2023-11-26T04:07:39.174Z,-0.81
2023-11-26T04:10:09.789Z,-0.75
2023-11-26T04:12:36.969Z,-0.74
2023-11-26T04:15:06.647Z,-0.76
2023-11-26T04:17:34.464Z,-0.75
2023-11-26T04:20:01.964Z,-0.76
2023-11-26T04:22:29.576Z,-0.75
2023-11-26T04:24:57.123Z,-0.74
2023-11-26T04:27:24.595Z,-0.74
2023-11-26T04:29:52.049Z,-0.76
2023-11-26T04:32:19.476Z,-0.80
2023-11-26T04:34:46.606Z,-0.83
2023-11-26T04:37:13.919Z,-0.85
2023-11-26T04:39:41.693Z,-0.83
2023-11-26T04:42:09.016Z,-0.83
2023-11-26T04:44:36.521Z,-0.82
2023-11-26T04:47:03.841Z,-0.83
2023-11-26T04:49:31.063Z,-0.89
2023-11-26T04:51:58.229Z,-0.92
2023-11-26T04:54:28.014Z,-0.97
2023-11-26T04:56:55.368Z,-0.96
2023-11-26T04:59:22.786Z,-0.94
2023-11-26T05:01:55.446Z,-0.96
2023-11-26T05:04:23.479Z,-0.97
2023-11-26T05:06:50.681Z,-0.97
2023-11-26T05:09:18.080Z,-0.99
2023-11-26T05:11:46.178Z,-0.98
2023-11-26T05:14:13.962Z,-0.96
2023-11-26T05:16:42.392Z,-0.98
2023-11-26T05:19:09.501Z,-0.99
2023-11-26T05:21:38.328Z,-1.01
2023-11-26T05:24:06.969Z,-1.01
2023-11-26T05:26:34.230Z,-1.03
2023-11-26T05:29:01.577Z,-1.03
2023-11-26T05:31:29.271Z,-1.09
2023-11-26T05:33:56.412Z,-1.11
2023-11-26T05:36:26.389Z,-1.13
2023-11-26T05:38:53.564Z,-1.19
2023-11-26T05:41:20.850Z,-1.24
2023-11-26T05:43:48.086Z,-1.23
2023-11-26T05:46:15.392Z,-1.22
2023-11-26T05:48:43.285Z,-1.19
2023-11-26T05:51:11.108Z,-1.18
2023-11-26T05:53:38.287Z,-1.17
2023-11-26T05:56:08.593Z,-1.15
2023-11-26T05:58:36.758Z,-1.17
2023-11-26T06:01:05.569Z,-1.14
2023-11-26T06:03:33.051Z,-1.15
2023-11-26T06:06:00.321Z,-1.12
2023-11-26T06:08:27.407Z,-1.13
2023-11-26T06:10:54.727Z,-1.11
2023-11-26T06:13:21.842Z,-1.10
2023-11-26T06:15:48.966Z,-1.08
2023-11-26T06:18:17.879Z,-1.06
2023-11-26T06:20:45.172Z,-1.08
2023-11-26T06:23:12.267Z,-1.05
2023-11-26T06:25:39.336Z,-1.04
2023-11-26T06:28:06.727Z,-1.04
2023-11-26T06:30:33.867Z,-1.04
2023-11-26T06:33:02.399Z,-1.03
2023-11-26T06:35:29.613Z,-1.01
2023-11-26T06:37:56.735Z,-1.00
2023-11-26T06:40:23.866Z,-1.01
2023-11-26T06:42:51.180Z,-1.01
2023-11-26T06:45:18.510Z,-1.01
2023-11-26T06:47:45.775Z,-1.01
2023-11-26T06:50:14.085Z,-1.02
2023-11-26T06:52:41.215Z,-1.01
2023-11-26T06:55:09.571Z,-1.01
2023-11-26T06:57:36.892Z,-1.00
2023-11-26T07:00:05.158Z,-0.99
2023-11-26T07:02:32.375Z,-0.99
2023-11-26T07:05:00.804Z,-0.98
2023-11-26T07:07:27.916Z,-0.97
2023-11-26T07:09:55.037Z,-0.94
2023-11-26T07:12:22.789Z,-0.93
2023-11-26T07:14:51.880Z,-0.93
2023-11-26T07:17:19.101Z,-0.98
2023-11-26T07:19:47.600Z,-1.02
2023-11-26T07:22:17.302Z,-1.03
2023-11-26T07:24:44.405Z,-1.03
2023-11-26T07:27:12.214Z,-1.03
2023-11-26T07:29:39.380Z,-1.03
2023-11-26T07:32:06.988Z,-1.04
2023-11-26T07:34:37.198Z,-1.02
2023-11-26T07:37:06.236Z,-1.01
2023-11-26T07:39:53.224Z,-1.01
2023-11-26T07:42:20.410Z,-1.00
2023-11-26T07:44:47.572Z,-1.03
2023-11-26T07:47:14.715Z,-1.02
2023-11-26T07:49:41.936Z,-0.99
2023-11-26T07:52:09.867Z,-0.98
2023-11-26T07:54:37.002Z,-0.95
2023-11-26T07:57:05.525Z,-0.98
2023-11-26T07:59:32.784Z,-0.97
2023-11-26T08:01:59.920Z,-0.94
2023-11-26T08:04:28.440Z,-0.92
2023-11-26T08:06:55.697Z,-0.91
2023-11-26T08:09:22.936Z,-0.90
2023-11-26T08:11:51.360Z,-0.90
2023-11-26T08:14:20.135Z,-0.90
2023-11-26T08:16:48.027Z,-0.87
2023-11-26T08:19:19.209Z,-0.88
2023-11-26T08:21:46.901Z,-0.87
2023-11-26T08:24:20.047Z,-0.89
2023-11-26T08:26:48.133Z,-0.90
2023-11-26T08:29:17.658Z,-0.89
2023-11-26T08:31:46.045Z,-0.88
2023-11-26T08:34:17.392Z,-0.85
2023-11-26T08:36:44.932Z,-0.88
2023-11-26T08:39:20.664Z,-0.89
2023-11-26T08:41:48.218Z,-0.91
2023-11-26T08:44:15.451Z,-0.94
2023-11-26T08:46:43.385Z,-0.96
2023-11-26T08:49:11.290Z,-0.97
2023-11-26T08:51:39.029Z,-0.93
2023-11-26T08:54:06.315Z,-0.90
2023-11-26T08:56:33.464Z,-0.83
2023-11-26T08:59:00.677Z,-0.80
2023-11-26T09:01:27.884Z,-0.75
2023-11-26T09:03:55.085Z,-0.72
2023-11-26T09:06:22.388Z,-0.70
2023-11-26T09:08:51.717Z,-0.67
2023-11-26T09:11:19.663Z,-0.58
2023-11-26T09:13:47.284Z,-0.52
2023-11-26T09:16:14.413Z,-0.49
2023-11-26T09:18:41.720Z,-0.52
2023-11-26T09:21:09.248Z,-0.48
2023-11-26T09:23:37.323Z,-0.44
2023-11-26T09:26:05.622Z,-0.40
2023-11-26T09:28:32.789Z,-0.34
2023-11-26T09:31:00.009Z,-0.36
2023-11-26T09:33:27.204Z,-0.33
2023-11-26T09:35:54.566Z,-0.32
2023-11-26T09:38:21.676Z,-0.31
2023-11-26T09:40:48.771Z,-0.28
2023-11-26T09:43:16.311Z,-0.18
2023-11-26T09:45:46.843Z,-0.15
2023-11-26T09:48:14.176Z,-0.14
2023-11-26T09:50:41.413Z,-0.13
2023-11-26T09:53:09.350Z,-0.12
2023-11-26T09:55:41.049Z,-0.06
2023-11-26T09:58:08.384Z,-0.07
2023-11-26T10:00:35.995Z,-0.11
2023-11-26T10:03:04.402Z,-0.15
2023-11-26T10:05:34.077Z,-0.14
2023-11-26T10:08:02.206Z,-0.12
2023-11-26T10:10:29.787Z,-0.06
2023-11-26T10:13:01.909Z,0.04
2023-11-26T10:15:31.954Z,0.06
2023-11-26T10:18:06.261Z,0.07
2023-11-26T10:20:41.473Z,0.13
2023-11-26T10:23:09.605Z,0.13
2023-11-26T10:25:43.958Z,0.22
2023-11-26T10:28:18.064Z,0.29
2023-11-26T10:30:45.997Z,0.31
2023-11-26T10:33:13.783Z,0.36
2023-11-26T10:35:51.833Z,0.40
2023-11-26T10:38:34.678Z,0.46
2023-11-26T10:41:03.357Z,0.45
2023-11-26T10:43:39.061Z,0.44
2023-11-26T10:46:13.838Z,0.47
2023-11-26T10:48:42.180Z,0.42
2023-11-26T10:51:24.131Z,0.41
2023-11-26T10:54:07.083Z,0.37
2023-11-26T10:56:42.392Z,0.33
2023-11-26T10:59:10.737Z,0.28
2023-11-26T11:01:38.491Z,0.18
2023-11-26T11:04:14.583Z,0.18
2023-11-26T11:06:45.447Z,0.22
2023-11-26T11:09:19.125Z,0.25
2023-11-26T11:11:56.649Z,0.22
2023-11-26T11:14:24.860Z,0.19
2023-11-26T11:16:52.065Z,0.17
2023-11-26T11:19:49.155Z,0.19
2023-11-26T11:22:16.896Z,0.20
2023-11-26T11:24:44.705Z,0.22
2023-11-26T11:27:12.386Z,0.24
2023-11-26T11:29:39.859Z,0.25
2023-11-26T11:32:07.198Z,0.26
2023-11-26T11:34:34.792Z,0.28
2023-11-26T11:37:03.819Z,0.26
2023-11-26T11:39:51.454Z,0.25
2023-11-26T11:42:27.257Z,0.25
2023-11-26T11:44:55.626Z,0.27
2023-11-26T11:47:43.098Z,0.32
2023-11-26T11:50:11.389Z,0.34
2023-11-26T11:52:39.609Z,0.36
2023-11-26T11:55:25.244Z,0.37
2023-11-26T11:57:53.262Z,0.40
2023-11-26T12:00:23.746Z,0.44
2023-11-26T12:02:51.259Z,0.48
2023-11-26T12:05:27.067Z,0.55
2023-11-26T12:07:57.456Z,0.62
2023-11-26T12:10:26.200Z,0.65
2023-11-26T12:13:11.940Z,0.68
2023-11-26T12:15:41.090Z,0.70
2023-11-26T12:18:08.723Z,0.71
2023-11-26T12:20:36.076Z,0.67
2023-11-26T12:23:04.129Z,0.70
2023-11-26T12:25:32.070Z,0.71
2023-11-26T12:28:07.000Z,0.75
2023-11-26T12:30:35.343Z,0.81
2023-11-26T12:33:03.307Z,0.86
2023-11-26T12:35:32.341Z,0.88
2023-11-26T12:38:01.250Z,0.86
2023-11-26T12:40:29.540Z,0.84
2023-11-26T12:42:57.487Z,0.80
2023-11-26T12:45:24.796Z,0.78
2023-11-26T12:47:53.119Z,0.75
2023-11-26T12:50:23.673Z,0.71
2023-11-26T12:52:51.600Z,0.68
2023-11-26T12:55:19.087Z,0.66
2023-11-26T12:57:46.433Z,0.61
2023-11-26T13:00:15.947Z,0.58
2023-11-26T13:02:47.360Z,0.58
2023-11-26T13:05:46.262Z,0.56
2023-11-26T13:08:26.174Z,0.58
2023-11-26T13:10:57.083Z,0.54
2023-11-26T13:13:29.934Z,0.51
2023-11-26T13:15:58.640Z,0.51
2023-11-26T13:18:27.412Z,0.51
2023-11-26T13:21:07.736Z,0.52
2023-11-26T13:23:35.092Z,0.50
2023-11-26T13:26:02.645Z,0.49
2023-11-26T13:28:31.071Z,0.48
2023-11-26T13:31:00.710Z,0.47
2023-11-26T13:33:28.290Z,0.48
2023-11-26T13:36:00.876Z,0.45
2023-11-26T13:38:28.105Z,0.42
2023-11-26T13:40:55.294Z,0.43
2023-11-26T13:43:24.237Z,0.44
2023-11-26T13:45:51.633Z,0.44
2023-11-26T13:48:23.807Z,0.40
2023-11-26T13:50:52.913Z,0.36
2023-11-26T13:53:20.257Z,0.32
2023-11-26T13:55:47.620Z,0.27
2023-11-26T13:58:14.970Z,0.25
2023-11-26T14:00:42.974Z,0.27
2023-11-26T14:03:12.334Z,0.29
2023-11-26T14:05:40.264Z,0.31
2023-11-26T14:08:08.655Z,0.26
2023-11-26T14:10:36.586Z,0.28
2023-11-26T14:13:04.209Z,0.29
2023-11-26T14:15:31.517Z,0.30
2023-11-26T14:17:58.981Z,0.31
2023-11-26T14:20:26.424Z,0.29
2023-11-26T14:22:53.625Z,0.30
2023-11-26T14:25:21.136Z,0.28
2023-11-26T14:27:50.249Z,0.29
2023-11-26T14:30:20.139Z,0.27
2023-11-26T14:32:51.479Z,0.22
2023-11-26T14:35:19.712Z,0.22
2023-11-26T14:37:46.921Z,0.23
2023-11-26T14:40:14.460Z,0.27
2023-11-26T14:42:43.370Z,0.30
2023-11-26T14:45:11.756Z,0.31
2023-11-26T14:47:39.330Z,0.33
2023-11-26T14:50:07.130Z,0.35
2023-11-26T14:52:35.032Z,0.34
2023-11-26T14:55:03.073Z,0.35
2023-11-26T14:57:31.337Z,0.33
2023-11-26T15:00:02.544Z,0.34
2023-11-26T15:02:30.030Z,0.30
2023-11-26T15:04:57.270Z,0.28
2023-11-26T15:07:29.393Z,0.27
2023-11-26T15:09:56.586Z,0.29
2023-11-26T15:12:25.556Z,0.30
2023-11-26T15:14:53.037Z,0.30
2023-11-26T15:17:20.451Z,0.30
2023-11-26T15:19:48.039Z,0.29
2023-11-26T15:22:16.223Z,0.30
2023-11-26T15:24:44.379Z,0.33
2023-11-26T15:27:11.620Z,0.36
2023-11-26T15:29:41.816Z,0.35
2023-11-26T15:32:11.453Z,0.36
2023-11-26T15:34:39.707Z,0.35
2023-11-26T15:37:07.124Z,0.36
2023-11-26T15:39:34.483Z,0.36
2023-11-26T15:42:02.157Z,0.38
2023-11-26T15:44:30.103Z,0.39
2023-11-26T15:46:58.244Z,0.41
2023-11-26T15:49:26.762Z,0.41
2023-11-26T15:51:54.653Z,0.41
2023-11-26T15:54:22.308Z,0.37
2023-11-26T15:56:53.197Z,0.35
2023-11-26T15:59:23.713Z,0.33
2023-11-26T16:01:51.771Z,0.32
2023-11-26T16:04:19.355Z,0.33
2023-11-26T16:06:47.270Z,0.35
2023-11-26T16:09:14.505Z,0.36
2023-11-26T16:11:43.515Z,0.37
2023-11-26T16:14:10.754Z,0.34
2023-11-26T16:16:40.762Z,0.32
2023-11-26T16:19:08.060Z,0.31
2023-11-26T16:21:35.268Z,0.30
2023-11-26T16:24:03.563Z,0.31
2023-11-26T16:26:31.506Z,0.32
2023-11-26T16:28:59.052Z,0.32
2023-11-26T16:31:26.603Z,0.28
2023-11-26T16:33:54.601Z,0.28
2023-11-26T16:36:25.302Z,0.29
2023-11-26T16:38:55.635Z,0.28
2023-11-26T16:41:22.877Z,0.24
2023-11-26T16:43:50.506Z,0.25
2023-11-26T16:46:18.781Z,0.24
2023-11-26T16:48:47.141Z,0.25
2023-11-26T16:51:15.098Z,0.24
2023-11-26T16:53:42.482Z,0.26
2023-11-26T16:56:10.793Z,0.30
2023-11-26T16:58:39.076Z,0.30
2023-11-26T17:01:11.603Z,0.31
2023-11-26T17:03:40.445Z,0.29
2023-11-26T17:06:08.842Z,0.28
2023-11-26T17:08:47.369Z,0.30
2023-11-26T17:11:17.983Z,0.35
2023-11-26T17:13:45.369Z,0.39
2023-11-26T17:16:15.961Z,0.39
2023-11-26T17:18:44.177Z,0.38
2023-11-26T17:21:11.557Z,0.38
2023-11-26T17:23:38.755Z,0.41
2023-11-26T17:26:06.134Z,0.36
2023-11-26T17:28:33.759Z,0.38
2023-11-26T17:31:00.989Z,0.37
2023-11-26T17:33:28.255Z,0.36
2023-11-26T17:35:55.770Z,0.35
2023-11-26T17:38:23.018Z,0.39
2023-11-26T17:40:50.818Z,0.40
2023-11-26T17:43:18.061Z,0.42
2023-11-26T17:45:47.413Z,0.43
2023-11-26T17:48:14.762Z,0.43
2023-11-26T17:50:42.308Z,0.40
2023-11-26T17:53:11.375Z,0.40
2023-11-26T17:55:42.962Z,0.43
2023-11-26T17:58:10.267Z,0.49
2023-11-26T18:00:40.057Z,0.49
2023-11-26T18:03:09.861Z,0.52
2023-11-26T18:05:44.268Z,0.55
2023-11-26T18:08:14.736Z,0.57
2023-11-26T18:10:42.061Z,0.60
2023-11-26T18:13:09.708Z,0.64
2023-11-26T18:15:39.645Z,0.69
2023-11-26T18:18:07.136Z,0.72
2023-11-26T18:20:34.543Z,0.74
2023-11-26T18:23:08.008Z,0.77
2023-11-26T18:25:38.794Z,0.76
2023-11-26T18:28:13.662Z,0.76
2023-11-26T18:30:50.116Z,0.77
2023-11-26T18:33:28.883Z,0.78
2023-11-26T18:35:59.171Z,0.78
2023-11-26T18:38:35.797Z,0.82
2023-11-26T18:41:09.620Z,0.81
2023-11-26T18:43:45.024Z,0.82
2023-11-26T18:46:15.575Z,0.85
2023-11-26T18:48:48.516Z,0.86
2023-11-26T18:51:25.083Z,0.92
2023-11-26T18:53:55.938Z,0.89
2023-11-26T18:56:31.509Z,0.90
2023-11-26T18:59:03.042Z,0.89
2023-11-26T19:01:32.567Z,0.92
2023-11-26T19:04:18.961Z,0.95
2023-11-26T19:06:50.107Z,1.01
2023-11-26T19:09:18.149Z,1.02
2023-11-26T19:11:47.632Z,1.03
2023-11-26T19:14:16.002Z,1.07
2023-11-26T19:16:49.416Z,1.09
2023-11-26T19:19:17.308Z,1.06
2023-11-26T19:21:44.736Z,1.10
2023-11-26T19:24:15.102Z,1.11
2023-11-26T19:26:45.587Z,1.11
2023-11-26T19:29:13.335Z,1.13
2023-11-26T19:31:41.206Z,1.12
2023-11-26T19:34:08.592Z,1.13
2023-11-26T19:36:41.195Z,1.15
2023-11-26T19:39:08.681Z,1.11
2023-11-26T19:41:45.027Z,1.14
2023-11-26T19:44:12.421Z,1.15
2023-11-26T19:46:44.624Z,1.13
2023-11-26T19:49:14.345Z,1.17
2023-11-26T19:51:43.925Z,1.18
2023-11-26T19:54:13.628Z,1.19
2023-11-26T19:56:43.772Z,1.15
2023-11-26T19:59:12.871Z,1.12
2023-11-26T20:01:40.270Z,1.10
2023-11-26T20:04:07.925Z,1.10
2023-11-26T20:06:36.464Z,1.09
2023-11-26T20:09:06.598Z,1.09
2023-11-26T20:11:33.978Z,1.08
2023-11-26T20:14:01.728Z,1.09
2023-11-26T20:16:31.533Z,1.07
2023-11-26T20:18:58.754Z,1.08
2023-11-26T20:21:25.976Z,1.08
2023-11-26T20:23:53.332Z,1.10
2023-11-26T20:26:21.046Z,1.12
2023-11-26T20:28:48.387Z,1.15
2023-11-26T20:31:20.790Z,1.17
2023-11-26T20:33:48.299Z,1.21
2023-11-26T20:36:21.283Z,1.23
2023-11-26T20:38:49.474Z,1.22
2023-11-26T20:41:16.869Z,1.21
2023-11-26T20:43:46.482Z,1.22
2023-11-26T20:46:36.176Z,1.22
2023-11-26T20:49:15.869Z,1.22
2023-11-26T20:51:44.738Z,1.24
2023-11-26T20:54:13.444Z,1.26
2023-11-26T20:56:44.641Z,1.25
2023-11-26T20:59:16.934Z,1.27
2023-11-26T21:01:51.703Z,1.27
2023-11-26T21:04:22.254Z,1.27
2023-11-26T21:06:51.892Z,1.25
2023-11-26T21:09:19.302Z,1.26
2023-11-26T21:11:46.895Z,1.25
2023-11-26T21:14:18.162Z,1.24
2023-11-26T21:16:46.257Z,1.21
2023-11-26T21:19:20.342Z,1.19
2023-11-26T21:21:52.156Z,1.18
2023-11-26T21:25:06.499Z,1.16
2023-11-26T21:28:36.010Z,1.12
2023-11-26T21:41:27.374Z,1.17
2023-11-26T21:47:26.470Z,1.06
2023-11-26T21:51:33.784Z,1.04
2023-11-26T21:57:37.810Z,1.05
2023-11-26T22:00:34.146Z,1.05
2023-11-26T22:03:01.544Z,1.04
2023-11-26T22:05:28.697Z,1.06
2023-11-26T22:07:55.809Z,1.04
2023-11-26T22:10:23.315Z,1.08
2023-11-26T22:12:51.671Z,1.08
2023-11-26T22:15:19.313Z,1.08
2023-11-26T22:17:46.475Z,1.07
2023-11-26T22:20:13.652Z,1.06
2023-11-26T22:22:43.466Z,1.04
2023-11-26T22:25:11.446Z,1.03
2023-11-26T22:27:38.626Z,1.07
2023-11-26T22:30:09.179Z,1.10
2023-11-26T22:32:37.952Z,1.08
2023-11-26T22:35:06.246Z,1.05
2023-11-26T22:37:33.702Z,1.03
2023-11-26T22:40:00.910Z,1.01
2023-11-26T22:42:28.281Z,0.98
2023-11-26T22:44:55.408Z,0.98
2023-11-26T22:47:22.543Z,0.99
2023-11-26T22:49:49.913Z,0.97
2023-11-26T22:52:17.232Z,1.00
2023-11-26T22:54:45.252Z,1.00
2023-11-26T22:57:12.782Z,1.03
2023-11-26T22:59:39.878Z,1.05
2023-11-26T23:02:09.806Z,1.08
2023-11-26T23:04:37.894Z,1.06
2023-11-26T23:07:05.210Z,1.06
2023-11-26T23:09:33.127Z,1.06
2023-11-26T23:12:00.345Z,1.09
2023-11-26T23:14:27.479Z,1.09
2023-11-26T23:16:54.641Z,1.07
2023-11-26T23:19:21.876Z,1.06
2023-11-26T23:21:49.073Z,1.05
2023-11-26T23:24:16.177Z,1.09
2023-11-26T23:26:44.239Z,1.08
2023-11-26T23:29:11.319Z,1.08
2023-11-26T23:31:38.514Z,1.07
2023-11-26T23:34:05.728Z,1.07
2023-11-26T23:36:32.890Z,1.08
2023-11-26T23:39:00.079Z,1.08
2023-11-26T23:41:27.230Z,1.11
2023-11-26T23:43:54.695Z,1.09
2023-11-26T23:46:22.478Z,1.10
2023-11-26T23:48:49.666Z,1.08
2023-11-26T23:51:16.787Z,1.10
2023-11-26T23:53:44.847Z,1.11
2023-11-26T23:56:12.197Z,1.08
2023-11-26T23:58:39.551Z,1.05
